Florin, Pennsylvania
Current Conditions -  °F | °C
As of 3:53 PM on Tuesday 25 Nov 2014 (Local Time) from KLNS Reporting Station
Clear Clear  
Wind Chill: 51°   Ceiling: Unl
Heat Index: 51°   Visibility: 10mi
Dew Point: 30°   Wind: 7mph
Humidity: 44%   Direction: 280°W
Pressure: 30.03"   Gusts: NA
Location:  40.1077°N, 76.5054°W
Report Text: KLNS 252053Z 28006KT 10SM CLR 11/M01 A3003 RMK AO2 SLP168 T01061011 53001
Loading
Personal Weather Stations






























Interactive Weather Map New forecast layout! Learn more

10-Day Weather Forecast

Advertisements
Track Severe Weather on mobile